Time;durP1;ratioP1;P1;durP2;ratioP2;P2;SDS_P1;SDS_P2;PMS_P1;PMS_P2;Temp;Humidity;BMP_temperature;BMP_pressure;BME280_temperature;BME280_humidity;BME280_pressure;Samples;Min_cycle;Max_cycle;Signal;HPM_P1;HPM_P2
2021/03/27 12:58:09;;;;;;;7.20;1.02;;;;;;;;;;5121437;27;20319;-76
2021/03/27 13:00:38;;;;;;;6.32;0.90;;;;;;;;;;5109640;28;20019;-76
2021/03/27 13:03:13;;;;;;;4.43;0.70;;;;;;;;;;5108989;28;20058;-76
2021/03/27 13:05:39;;;;;;;6.95;0.90;;;;;;;;;;5109441;28;20077;-76
2021/03/27 13:08:08;;;;;;;4.97;0.90;;;;;;;;;;5109265;28;20028;-77
2021/03/27 13:10:47;;;;;;;4.28;0.82;;;;;;;;;;5103746;28;20017;-77
2021/03/27 13:13:13;;;;;;;2.28;0.80;;;;;;;;;;5097268;28;20050;-76
2021/03/27 13:15:39;;;;;;;4.82;1.05;;;;;;;;;;5107694;28;20027;-77
2021/03/27 13:18:23;;;;;;;8.13;0.80;;;;;;;;;;5108053;28;20504;-77
2021/03/27 13:20:55;;;;;;;4.80;1.15;;;;;;;;;;5109867;28;20023;-77
2021/03/27 13:23:24;;;;;;;4.63;0.93;;;;;;;;;;5107591;28;20012;-77
2021/03/27 13:25:55;;;;;;;4.85;0.80;;;;;;;;;;5109282;28;20024;-77
2021/03/27 13:28:27;;;;;;;3.92;0.90;;;;;;;;;;5091387;28;20024;-77
2021/03/27 13:31:09;;;;;;;5.22;0.82;;;;;;;;;;5087755;28;20032;-77
2021/03/27 13:33:54;;;;;;;4.22;0.90;;;;;;;;;;5086912;28;20028;-77
2021/03/27 13:36:35;;;;;;;5.50;0.90;;;;;;;;;;5090163;28;20028;-77
2021/03/27 13:39:11;;;;;;;3.10;0.60;;;;;;;;;;5089412;28;20023;-77
2021/03/27 13:41:37;;;;;;;5.13;1.13;;;;;;;;;;5105151;28;20047;-77
2021/03/27 13:44:09;;;;;;;5.75;1.17;;;;;;;;;;5111231;28;20020;-77
2021/03/27 13:46:39;;;;;;;4.93;1.33;;;;;;;;;;5112775;28;20023;-77
2021/03/27 13:49:05;;;;;;;4.13;1.25;;;;;;;;;;5110410;28;20427;-77
2021/03/27 13:51:34;;;;;;;3.88;1.02;;;;;;;;;;5110580;28;20020;-77
2021/03/27 13:54:06;;;;;;;5.40;0.95;;;;;;;;;;5108714;28;20160;-76
2021/03/27 13:56:46;;;;;;;4.45;1.02;;;;;;;;;;5108523;28;20063;-76
2021/03/27 13:59:12;;;;;;;5.65;0.77;;;;;;;;;;5105398;28;20092;-76
2021/03/27 14:01:45;;;;;;;3.80;0.70;;;;;;;;;;5107699;28;20099;-76
2021/03/27 14:04:10;;;;;;;;;;;;;;;;;;5106862;28;20082;-76
2021/03/27 14:06:42;;;;;;;3.08;0.90;;;;;;;;;;5100848;28;19908;-76
2021/03/27 14:09:10;;;;;;;7.25;0.80;;;;;;;;;;5096457;28;20390;-78
2021/03/27 14:11:57;;;;;;;4.68;1.23;;;;;;;;;;5092837;28;20369;-76
2021/03/27 14:14:40;;;;;;;2.95;1.08;;;;;;;;;;5093475;28;20413;-76
2021/03/27 14:17:18;;;;;;;5.40;0.80;;;;;;;;;;5089371;28;20024;-76
2021/03/27 14:20:03;;;;;;;4.88;0.90;;;;;;;;;;5089128;28;20031;-76
2021/03/27 14:22:51;;;;;;;6.05;1.27;;;;;;;;;;5085202;28;20036;-75
2021/03/27 14:25:25;;;;;;;3.47;1.20;;;;;;;;;;5074166;28;20017;-76
2021/03/27 14:27:58;;;;;;;3.35;1.02;;;;;;;;;;5085105;28;20466;-75
2021/03/27 14:30:33;;;;;;;3.30;0.98;;;;;;;;;;5094349;28;20027;-77
2021/03/27 14:33:17;;;;;;;3.25;0.70;;;;;;;;;;5080564;28;20035;-76
2021/03/27 14:35:43;;;;;;;6.18;1.88;;;;;;;;;;5080909;28;20464;-76
2021/03/27 14:38:18;;;;;;;4.03;0.93;;;;;;;;;;5080010;28;20024;-76
2021/03/27 14:41:01;;;;;;;5.20;0.77;;;;;;;;;;5073875;28;20023;-77
2021/03/27 14:43:45;;;;;;;2.80;0.68;;;;;;;;;;5073737;28;20029;-77
2021/03/27 14:46:11;;;;;;;7.35;0.68;;;;;;;;;;5072912;28;20025;-77
2021/03/27 14:48:43;;;;;;;3.15;0.80;;;;;;;;;;5091560;28;20105;-76
2021/03/27 14:51:27;;;;;;;5.57;1.00;;;;;;;;;;5093737;28;20480;-76
2021/03/27 14:53:57;;;;;;;4.57;0.90;;;;;;;;;;5073885;28;20033;-76
2021/03/27 14:56:33;;;;;;;3.28;0.80;;;;;;;;;;5088508;28;20036;-76
2021/03/27 14:59:03;;;;;;;3.90;0.90;;;;;;;;;;5093910;28;20459;-77
2021/03/27 15:01:42;;;;;;;2.10;0.70;;;;;;;;;;5093209;28;20024;-78
2021/03/27 15:04:15;;;;;;;6.18;1.30;;;;;;;;;;5072122;28;20070;-76
2021/03/27 15:06:44;;;;;;;5.90;1.00;;;;;;;;;;5086764;28;20024;-78
2021/03/27 15:09:13;;;;;;;4.32;0.93;;;;;;;;;;5073204;28;20025;-77
2021/03/27 15:11:45;;;;;;;3.78;0.90;;;;;;;;;;5072555;28;20040;-76
2021/03/27 15:14:17;;;;;;;5.03;1.23;;;;;;;;;;5092859;28;20510;-77
2021/03/27 15:16:52;;;;;;;3.42;0.90;;;;;;;;;;5092779;28;20081;-77
2021/03/27 15:19:49;;;;;;;5.28;0.90;;;;;;;;;;5092555;28;20077;-77
2021/03/27 15:22:21;;;;;;;4.03;0.88;;;;;;;;;;5086545;28;20098;-76
2021/03/27 15:27:41;;;;;;;3.85;1.13;;;;;;;;;;5074258;28;20172;-77
2021/03/27 15:30:11;;;;;;;4.88;0.95;;;;;;;;;;5092195;28;20103;-77
2021/03/27 15:32:41;;;;;;;7.15;1.10;;;;;;;;;;5090130;28;20028;-76
2021/03/27 15:35:29;;;;;;;5.45;1.10;;;;;;;;;;5092803;28;20610;-77
2021/03/27 15:37:58;;;;;;;4.68;0.90;;;;;;;;;;5080957;28;20029;-76
2021/03/27 15:40:41;;;;;;;4.88;1.38;;;;;;;;;;5071482;28;20028;-77
2021/03/27 15:43:07;;;;;;;;;;;;;;;;;;5086026;28;20034;-77
2021/03/27 15:45:33;;;;;;;8.68;1.30;;;;;;;;;;5092074;28;19908;-77
2021/03/27 15:48:06;;;;;;;5.53;1.52;;;;;;;;;;5080060;28;20021;-77
2021/03/27 15:50:44;;;;;;;5.85;1.00;;;;;;;;;;5072614;28;20427;-77
2021/03/27 15:53:19;;;;;;;6.38;1.20;;;;;;;;;;5071831;28;20389;-77
2021/03/27 15:56:06;;;;;;;5.05;1.13;;;;;;;;;;5070993;28;20054;-77
2021/03/27 15:58:38;;;;;;;6.60;1.08;;;;;;;;;;5072341;28;20081;-76
2021/03/27 16:01:12;;;;;;;9.13;1.30;;;;;;;;;;5075043;28;20111;-76
2021/03/27 16:03:38;;;;;;;5.68;1.20;;;;;;;;;;5090294;28;20028;-76
2021/03/27 16:06:16;;;;;;;5.55;1.52;;;;;;;;;;5092531;28;20030;-77
2021/03/27 16:08:51;;;;;;;4.30;1.23;;;;;;;;;;5092325;28;20095;-77
2021/03/27 16:11:26;;;;;;;5.53;1.95;;;;;;;;;;5092496;28;20024;-78
2021/03/27 16:14:10;;;;;;;6.78;1.15;;;;;;;;;;5092291;28;20492;-77
2021/03/27 16:16:35;;;;;;;6.03;0.90;;;;;;;;;;5090964;28;20437;-77
2021/03/27 16:19:16;;;;;;;4.85;1.10;;;;;;;;;;5092912;28;20031;-77
2021/03/27 16:21:48;;;;;;;5.60;1.15;;;;;;;;;;5080513;28;20099;-76
2021/03/27 16:24:19;;;;;;;5.03;1.03;;;;;;;;;;5073354;28;20031;-76
2021/03/27 16:26:50;;;;;;;5.72;1.13;;;;;;;;;;5072136;28;20266;-77
2021/03/27 16:29:26;;;;;;;5.93;1.00;;;;;;;;;;5070720;28;20044;-76
2021/03/27 16:31:51;;;;;;;5.85;1.20;;;;;;;;;;5071194;28;20067;-78
2021/03/27 16:34:21;;;;;;;9.00;1.15;;;;;;;;;;5084273;28;20659;-76
2021/03/27 16:37:06;;;;;;;5.68;1.10;;;;;;;;;;5091754;28;20017;-76
2021/03/27 16:39:51;;;;;;;2.47;0.90;;;;;;;;;;5071803;28;20484;-77
2021/03/27 16:42:20;;;;;;;3.72;1.42;;;;;;;;;;5071065;28;20540;-77
2021/03/27 16:44:58;;;;;;;5.88;1.10;;;;;;;;;;5071632;28;20082;-78
2021/03/27 16:47:33;;;;;;;3.55;0.77;;;;;;;;;;5081237;28;20023;-77
2021/03/27 16:50:14;;;;;;;4.38;0.98;;;;;;;;;;5091577;28;20519;-77
2021/03/27 16:52:49;;;;;;;5.53;1.02;;;;;;;;;;5072546;28;20477;-77
2021/03/27 16:55:15;;;;;;;7.05;0.95;;;;;;;;;;5072850;28;20025;-77
2021/03/27 16:57:54;;;;;;;3.53;0.80;;;;;;;;;;5070013;28;20040;-76
2021/03/27 17:00:43;;;;;;;5.15;1.08;;;;;;;;;;5071618;28;20055;-77
2021/03/27 17:03:15;;;;;;;4.03;0.90;;;;;;;;;;5076474;28;20040;-77
2021/03/27 17:06:04;;;;;;;6.68;1.00;;;;;;;;;;5091709;28;20389;-77
2021/03/27 17:08:45;;;;;;;4.45;1.23;;;;;;;;;;5063991;28;20047;-78
2021/03/27 17:11:25;;;;;;;4.43;1.10;;;;;;;;;;5071686;28;20052;-77
2021/03/27 17:14:09;;;;;;;5.43;0.88;;;;;;;;;;5071901;28;20028;-78
2021/03/27 17:16:46;;;;;;;5.22;0.98;;;;;;;;;;5077249;28;20082;-77
2021/03/27 17:19:45;;;;;;;2.55;0.98;;;;;;;;;;5082763;28;20035;-77
2021/03/27 17:22:20;;;;;;;6.65;1.20;;;;;;;;;;5062975;28;20037;-77
2021/03/27 17:24:54;;;;;;;6.88;1.30;;;;;;;;;;5086276;28;20027;-77
2021/03/27 17:27:25;;;;;;;4.72;0.80;;;;;;;;;;5087901;28;20388;-78
2021/03/27 17:29:58;;;;;;;4.25;1.05;;;;;;;;;;5087879;28;20030;-77
2021/03/27 17:32:39;;;;;;;4.43;1.00;;;;;;;;;;5087860;28;20099;-76
2021/03/27 17:35:27;;;;;;;4.50;1.40;;;;;;;;;;5087827;28;20035;-79
2021/03/27 17:37:58;;;;;;;5.47;1.10;;;;;;;;;;5085994;28;20024;-77
2021/03/27 17:40:33;;;;;;;3.15;1.25;;;;;;;;;;5087977;28;20388;-78
2021/03/27 17:42:59;;;;;;;5.20;1.10;;;;;;;;;;5088085;28;20023;-85
2021/03/27 17:45:28;;;;;;;6.60;1.50;;;;;;;;;;5090823;28;20016;-83
2021/03/27 17:48:20;;;;;;;10.27;0.98;;;;;;;;;;5090325;28;20024;-77
2021/03/27 17:50:55;;;;;;;4.90;1.20;;;;;;;;;;5093371;28;20024;-79
2021/03/27 17:53:36;;;;;;;5.65;0.90;;;;;;;;;;5092979;28;20507;-77
2021/03/27 17:56:03;;;;;;;6.55;1.60;;;;;;;;;;5094407;28;20032;-77
2021/03/27 17:58:29;;;;;;;5.75;1.25;;;;;;;;;;5074573;28;20485;-77
2021/03/27 18:01:24;;;;;;;5.18;1.60;;;;;;;;;;5086621;28;20028;-75
2021/03/27 18:03:53;;;;;;;8.55;1.55;;;;;;;;;;5084966;28;20040;-76
2021/03/27 18:06:24;;;;;;;6.68;1.38;;;;;;;;;;5093302;28;20032;-76
2021/03/27 18:08:53;;;;;;;7.18;1.60;;;;;;;;;;5094407;28;20085;-79
2021/03/27 18:11:25;;;;;;;8.85;1.75;;;;;;;;;;5100688;28;20027;-79
2021/03/27 18:14:33;;;;;;;5.63;1.35;;;;;;;;;;5096524;28;20020;-78
2021/03/27 18:16:59;;;;;;;7.70;1.40;;;;;;;;;;5054552;28;20025;-79
2021/03/27 18:19:27;;;;;;;6.43;1.38;;;;;;;;;;5090626;28;20039;-79
2021/03/27 18:22:08;;;;;;;6.35;1.55;;;;;;;;;;5102271;28;20084;-78
2021/03/27 18:24:41;;;;;;;8.23;1.50;;;;;;;;;;5102582;28;20027;-79
2021/03/27 18:27:18;;;;;;;5.50;1.40;;;;;;;;;;5100661;28;20034;-79
2021/03/27 18:29:51;;;;;;;7.45;2.03;;;;;;;;;;5099295;28;20024;-79
2021/03/27 18:32:28;;;;;;;6.03;1.45;;;;;;;;;;5101239;28;20058;-78
2021/03/27 18:34:54;;;;;;;9.60;2.03;;;;;;;;;;5102031;28;20020;-80
2021/03/27 18:37:31;;;;;;;6.90;1.30;;;;;;;;;;5096199;28;20032;-80
2021/03/27 18:40:01;;;;;;;7.78;1.83;;;;;;;;;;5084228;28;20028;-80
2021/03/27 18:42:33;;;;;;;9.48;1.45;;;;;;;;;;5097579;28;20020;-80
2021/03/27 18:45:01;;;;;;;4.85;1.15;;;;;;;;;;5099809;28;20024;-80
2021/03/27 18:47:27;;;;;;;8.93;1.38;;;;;;;;;;5104536;28;20031;-80
2021/03/27 18:49:54;;;;;;;5.22;1.50;;;;;;;;;;5103579;28;20407;-80
2021/03/27 18:52:22;;;;;;;10.00;2.47;;;;;;;;;;5103872;28;20031;-80
2021/03/27 18:54:50;;;;;;;7.00;1.40;;;;;;;;;;5098595;28;20935;-80
